Ocean Exporter — VRXJ4 — position and weather

sailwx.info

Track history (hours):
 
Tides and Currents Weather Stations Pressure Air Temp Water Temp Dewpoint Dewpoint Depression Visibility Wind Speed Wind Dir Waves Ship Positions

Ocean Exporter

Last reported at 2015-Jan-17 15:33 UTC. Time now 2015-Jan-25 20:23 UTC.
Position N 31°01' E 122°22'.
Warning: this ship's position is 8 days out of date.

Length 169 m; draft 5.4 m.

Type: Cargo ship. MMSI: 477980000.

Date/timePositionNaut miles runAvg speedWind from/ knotsBaromVisibWave heightAir tempDewpointWater temp
2015-Jan-17 15:33N 31°01' E 122°22'1312.6
2015-Jan-17 14:34N 31°03' E 122°07'1211.8
2015-Jan-17 13:33N 31°08' E 121°55'1010.2
2015-Jan-17 12:33N 31°15' E 121°46'1110.7
2015-Jan-17 11:33N 31°22' E 121°37'1010.2
2015-Jan-17 10:34N 31°28' E 121°27'1212.4
2015-Jan-17 09:33N 31°37' E 121°17'1514.6
2015-Jan-17 08:33N 31°46' E 121°03'1212.0
2015-Jan-17 07:33N 31°54' E 120°53'1010.2
2015-Jan-17 06:33N 32°00' E 120°43'9 9.1
2015-Jan-17 05:33N 32°03' E 120°33'8 7.6
2015-Jan-17 04:33N 32°02' E 120°24'1010.3
2015-Jan-17 03:33N 31°56' E 120°14'1110.9
2015-Jan-17 02:33N 31°58' E 120°02'1313.2
2015-Jan-17 01:33N 32°09' E 119°54'1311.9
2015-Jan-17 00:30N 32°20' E 119°46'2 0.5
2015-Jan-16 21:24N 32°19' E 119°44'0 0.0
2015-Jan-16 20:06N 32°19' E 119°44'0 0.0
2015-Jan-16 16:06N 32°19' E 119°44'0 0.0
2015-Jan-16 13:33N 32°19' E 119°44'0 0.0
2015-Jan-16 12:23N 32°19' E 119°44'0 0.0
2015-Jan-16 11:32N 32°19' E 119°44'0 0.0
2015-Jan-15 10:26N 32°19' E 119°44'0 0.0
2015-Jan-14 05:17N 32°19' E 119°44'0 0.0
2015-Jan-14 00:17N 32°19' E 119°44'0 0.0
2015-Jan-12 13:31N 32°19' E 119°44'0 0.0
2015-Jan-11 23:24N 32°19' E 119°44'0 0.0
2015-Jan-11 22:30N 32°19' E 119°44'0 0.0
2015-Jan-11 21:09N 32°19' E 119°44'0 0.0
2015-Jan-11 20:33N 32°19' E 119°44'0 0.0
2015-Jan-11 18:30N 32°19' E 119°44'0 0.0
2015-Jan-11 17:21N 32°19' E 119°44'0 0.0
2015-Jan-11 16:33N 32°19' E 119°44'0 0.0
2015-Jan-11 15:30N 32°19' E 119°44'0 0.0
2015-Jan-11 14:15N 32°19' E 119°44'0 0.0
2015-Jan-11 13:27N 32°19' E 119°44'15 1.4
2015-Jan-11 02:22N 32°07' E 119°55'910.6
2015-Jan-11 01:34N 31°59' E 119°60'1010.4
2015-Jan-11 00:33N 31°56' E 120°11'9 9.2
2015-Jan-10 23:34N 31°58' E 120°22'6 5.6
2015-Jan-10 22:33N 32°02' E 120°27'1010.2
2015-Jan-10 21:33N 31°60' E 120°39'1110.6
2015-Jan-10 20:33N 31°58' E 120°51'1211.6
2015-Jan-10 19:34N 31°48' E 120°56'1110.6
2015-Jan-10 18:32N 31°43' E 121°08'1010.3
2015-Jan-10 17:34N 31°37' E 121°17'2 1.9
2015-Jan-10 16:33N 31°36' E 121°19'0 0.0
2015-Jan-10 15:33N 31°36' E 121°19'0 0.0
2015-Jan-10 14:33N 31°36' E 121°19'0 0.0
2015-Jan-10 13:30N 31°36' E 121°19'0 0.0
2015-Jan-10 12:33N 31°36' E 121°19'0 0.1
2015-Jan-10 11:33N 31°36' E 121°18'8 8.1
2015-Jan-10 10:33N 31°30' E 121°25'9 8.7
2015-Jan-10 09:33N 31°24' E 121°33'9 9.3
2015-Jan-10 08:33N 31°20' E 121°42'10 9.5
2015-Jan-10 07:33N 31°16' E 121°53'9 9.2
2015-Jan-10 06:33N 31°14' E 122°03'1211.7
2015-Jan-10 05:33N 31°08' E 122°15'1110.9
2015-Jan-10 04:33N 31°07' E 122°27'7 6.5
2015-Jan-10 03:33N 31°07' E 122°35'  
Track history (hours):
 
Tides and Currents Weather Stations Pressure Air Temp Water Temp Dewpoint Dewpoint Depression Visibility Wind Speed Wind Dir Waves Ship Positions

Ocean Exporter

Last reported at 2015-Jan-17 15:33 UTC. Time now 2015-Jan-25 20:23 UTC.
Position N 31°01' E 122°22'.
Warning: this ship's position is 8 days out of date.

Length 169 m; draft 5.4 m.

Type: Cargo ship. MMSI: 477980000.

Date/timePositionNaut miles runAvg speedWind from/ knotsBaromVisibWave heightAir tempDewpointWater temp
2015-Jan-17 15:33N 31°01' E 122°22'1312.6
2015-Jan-17 14:34N 31°03' E 122°07'1211.8
2015-Jan-17 13:33N 31°08' E 121°55'1010.2
2015-Jan-17 12:33N 31°15' E 121°46'1110.7
2015-Jan-17 11:33N 31°22' E 121°37'1010.2
2015-Jan-17 10:34N 31°28' E 121°27'1212.4
2015-Jan-17 09:33N 31°37' E 121°17'1514.6
2015-Jan-17 08:33N 31°46' E 121°03'1212.0
2015-Jan-17 07:33N 31°54' E 120°53'1010.2
2015-Jan-17 06:33N 32°00' E 120°43'9 9.1
2015-Jan-17 05:33N 32°03' E 120°33'8 7.6
2015-Jan-17 04:33N 32°02' E 120°24'1010.3
2015-Jan-17 03:33N 31°56' E 120°14'1110.9
2015-Jan-17 02:33N 31°58' E 120°02'1313.2
2015-Jan-17 01:33N 32°09' E 119°54'1311.9
2015-Jan-17 00:30N 32°20' E 119°46'2 0.5
2015-Jan-16 21:24N 32°19' E 119°44'0 0.0
2015-Jan-16 20:06N 32°19' E 119°44'0 0.0
2015-Jan-16 16:06N 32°19' E 119°44'0 0.0
2015-Jan-16 13:33N 32°19' E 119°44'0 0.0
2015-Jan-16 12:23N 32°19' E 119°44'0 0.0
2015-Jan-16 11:32N 32°19' E 119°44'0 0.0
2015-Jan-15 10:26N 32°19' E 119°44'0 0.0
2015-Jan-14 05:17N 32°19' E 119°44'0 0.0
2015-Jan-14 00:17N 32°19' E 119°44'0 0.0
2015-Jan-12 13:31N 32°19' E 119°44'0 0.0
2015-Jan-11 23:24N 32°19' E 119°44'0 0.0
2015-Jan-11 22:30N 32°19' E 119°44'0 0.0
2015-Jan-11 21:09N 32°19' E 119°44'0 0.0
2015-Jan-11 20:33N 32°19' E 119°44'0 0.0
2015-Jan-11 18:30N 32°19' E 119°44'0 0.0
2015-Jan-11 17:21N 32°19' E 119°44'0 0.0
2015-Jan-11 16:33N 32°19' E 119°44'0 0.0
2015-Jan-11 15:30N 32°19' E 119°44'0 0.0
2015-Jan-11 14:15N 32°19' E 119°44'0 0.0
2015-Jan-11 13:27N 32°19' E 119°44'15 1.4
2015-Jan-11 02:22N 32°07' E 119°55'910.6
2015-Jan-11 01:34N 31°59' E 119°60'1010.4
2015-Jan-11 00:33N 31°56' E 120°11'9 9.2
2015-Jan-10 23:34N 31°58' E 120°22'6 5.6
2015-Jan-10 22:33N 32°02' E 120°27'1010.2
2015-Jan-10 21:33N 31°60' E 120°39'1110.6
2015-Jan-10 20:33N 31°58' E 120°51'1211.6
2015-Jan-10 19:34N 31°48' E 120°56'1110.6
2015-Jan-10 18:32N 31°43' E 121°08'1010.3
2015-Jan-10 17:34N 31°37' E 121°17'2 1.9
2015-Jan-10 16:33N 31°36' E 121°19'0 0.0
2015-Jan-10 15:33N 31°36' E 121°19'0 0.0
2015-Jan-10 14:33N 31°36' E 121°19'0 0.0
2015-Jan-10 13:30N 31°36' E 121°19'0 0.0
2015-Jan-10 12:33N 31°36' E 121°19'0 0.1
2015-Jan-10 11:33N 31°36' E 121°18'8 8.1
2015-Jan-10 10:33N 31°30' E 121°25'9 8.7
2015-Jan-10 09:33N 31°24' E 121°33'9 9.3
2015-Jan-10 08:33N 31°20' E 121°42'10 9.5
2015-Jan-10 07:33N 31°16' E 121°53'9 9.2
2015-Jan-10 06:33N 31°14' E 122°03'1211.7
2015-Jan-10 05:33N 31°08' E 122°15'1110.9
2015-Jan-10 04:33N 31°07' E 122°27'7 6.5
2015-Jan-10 03:33N 31°07' E 122°35'  

Dump ship's entire track history